Time;durP1;ratioP1;P1;durP2;ratioP2;P2;SDS_P1;SDS_P2;PMS_P1;PMS_P2;Temp;Humidity;BMP_temperature;BMP_pressure;BME280_temperature;BME280_humidity;BME280_pressure;Samples;Min_cycle;Max_cycle;Signal;HPM_P1;HPM_P2
2022/03/18 00:01:28;;;;;;;14.07;5.10;;;3.40;99.90;;;;;;6005496;23;20111;-41
2022/03/18 00:04:51;;;;;;;14.88;4.90;;;3.30;99.90;;;;;;5977472;23;20348;-41
2022/03/18 00:11:45;;;;;;;16.55;4.65;;;;;;;;;;6001507;23;20015;-41
2022/03/18 00:15:12;;;;;;;8.98;4.68;;;3.20;99.90;;;;;;6000677;23;20030;-41
2022/03/18 00:18:38;;;;;;;11.55;5.22;;;3.20;99.90;;;;;;6003596;23;20110;-41
2022/03/18 00:22:01;;;;;;;12.75;4.63;;;3.20;99.90;;;;;;5975756;23;20090;-41
2022/03/18 00:25:29;;;;;;;16.27;4.80;;;3.20;99.90;;;;;;6002199;23;20020;-42
2022/03/18 00:28:53;;;;;;;12.82;5.18;;;3.20;99.90;;;;;;5997966;23;20624;-41
2022/03/18 00:59:48;;;;;;;16.17;5.30;;;2.90;99.90;;;;;;6027841;23;20054;-41
2022/03/18 01:34:12;;;;;;;14.38;6.03;;;2.80;99.90;;;;;;5991929;23;20406;-41
2022/03/18 01:37:37;;;;;;;14.68;6.43;;;2.80;99.90;;;;;;5975897;23;20023;-41
2022/03/18 01:41:04;;;;;;;11.60;5.40;;;2.80;99.90;;;;;;5998798;23;20027;-41
2022/03/18 01:44:30;;;;;;;11.55;6.03;;;2.90;99.90;;;;;;5975362;23;20504;-41
2022/03/18 01:47:54;;;;;;;11.77;5.75;;;2.90;99.90;;;;;;5974459;23;20027;-41
2022/03/18 01:51:22;;;;;;;13.80;6.18;;;2.80;99.90;;;;;;5950101;23;20408;-41
2022/03/18 01:54:48;;;;;;;13.43;5.15;;;2.90;99.90;;;;;;5950924;23;20167;-42
2022/03/18 01:58:14;;;;;;;12.88;5.30;;;2.90;99.90;;;;;;5974049;23;20020;-42
2022/03/18 02:01:40;;;;;;;17.08;5.10;;;3.00;99.90;;;;;;5972733;23;20030;-41
2022/03/18 02:05:07;;;;;;;14.73;5.80;;;3.00;99.90;;;;;;5999716;23;20102;-41
2022/03/18 02:08:30;;;;;;;10.35;5.47;;;3.00;99.90;;;;;;5974758;23;20377;-41
2022/03/18 03:00:01;;;;;;;17.40;6.25;;;2.90;99.90;;;;;;6003285;23;20354;-41
2022/03/18 03:16:08;;;;;;;13.07;5.85;;;3.10;99.90;;;;;;6029593;23;20102;-42
2022/03/18 03:18:57;;;;;;;15.43;5.47;;;3.00;99.90;;;;;;5982143;23;20032;-42
2022/03/18 03:36:04;;;;;;;10.60;5.10;;;2.90;99.90;;;;;;6001272;23;20145;-42
2022/03/18 03:39:31;;;;;;;13.05;5.45;;;2.90;99.90;;;;;;6004197;23;20020;-42
2022/03/18 03:42:57;;;;;;;14.02;5.25;;;2.90;99.90;;;;;;6028987;23;20030;-42
2022/03/18 03:46:23;;;;;;;13.60;5.28;;;3.00;99.90;;;;;;6004376;23;20059;-41
2022/03/18 03:49:49;;;;;;;9.82;5.93;;;3.00;99.90;;;;;;5978245;23;20030;-41
2022/03/18 03:53:14;;;;;;;13.20;5.72;;;3.00;99.90;;;;;;6028505;23;20050;-41
2022/03/18 04:07:00;;;;;;;17.33;7.30;;;3.40;99.90;;;;;;6029203;23;20110;-42
2022/03/18 04:10:26;;;;;;;12.73;6.05;;;3.50;99.90;;;;;;5980586;23;20023;-42
2022/03/18 04:13:53;;;;;;;12.95;6.55;;;3.60;99.90;;;;;;5979543;23;20015;-42
2022/03/18 04:17:19;;;;;;;14.38;6.57;;;3.80;99.90;;;;;;5979079;23;20019;-42
2022/03/18 04:20:45;;;;;;;12.18;6.05;;;3.90;99.90;;;;;;6004669;23;20015;-42
2022/03/18 04:24:10;;;;;;;18.20;6.68;;;4.00;99.90;;;;;;6030664;23;20388;-42
2022/03/18 04:27:36;;;;;;;13.55;6.57;;;4.10;99.90;;;;;;5981209;23;20469;-42
2022/03/18 04:31:02;;;;;;;13.00;7.00;;;4.20;99.90;;;;;;6005554;23;20023;-42
2022/03/18 04:34:28;;;;;;;15.07;7.68;;;4.30;99.90;;;;;;6022105;23;20171;-42
2022/03/18 04:37:53;;;;;;;10.75;7.30;;;4.40;99.90;;;;;;5999738;23;20028;-42
2022/03/18 06:00:22;;;;;;;18.65;11.10;;;4.00;99.90;;;;;;6031486;23;20126;-42
2022/03/18 06:24:24;;;;;;;17.52;11.50;;;4.30;99.90;;;;;;6029962;23;20019;-43
2022/03/18 06:48:25;;;;;;;17.90;11.60;;;5.80;99.90;;;;;;6003952;23;20078;-45
2022/03/18 07:29:40;;;;;;;14.25;10.10;;;11.90;99.90;;;;;;6029316;23;20038;-45
2022/03/18 07:40:06;;;;;;;15.13;9.60;;;13.00;99.90;;;;;;6030354;23;20035;-45
2022/03/18 07:43:23;;;;;;;19.30;10.05;;;13.20;99.90;;;;;;6005638;23;20023;-45
2022/03/18 07:46:48;;;;;;;18.17;8.90;;;13.50;99.90;;;;;;6027745;23;20020;-45
2022/03/18 07:50:19;;;;;;;20.10;10.45;;;13.50;99.90;;;;;;6002810;23;20018;-46
2022/03/18 07:57:07;;;;;;;16.77;9.15;;;13.50;99.90;;;;;;6029024;23;19921;-45
2022/03/18 08:00:32;;;;;;;15.63;8.80;;;14.10;99.90;;;;;;5981875;23;20019;-45
2022/03/18 08:03:59;;;;;;;19.98;9.20;;;14.70;99.90;;;;;;6003917;23;20019;-46
2022/03/18 08:07:26;;;;;;;15.63;8.75;;;15.00;99.90;;;;;;6003122;23;20015;-44
2022/03/18 08:10:50;;;;;;;19.58;9.20;;;15.10;99.90;;;;;;5982332;23;20580;-45
2022/03/18 08:14:19;;;;;;;14.20;8.70;;;15.00;99.90;;;;;;5981934;23;20012;-45
2022/03/18 08:17:42;;;;;;;15.73;8.57;;;15.30;99.90;;;;;;6005070;23;20457;-48
2022/03/18 08:21:08;;;;;;;18.67;8.23;;;15.70;99.90;;;;;;6006213;23;20051;-46
2022/03/18 08:24:37;;;;;;;18.27;9.30;;;15.60;99.90;;;;;;5982618;23;20027;-44
2022/03/18 08:28:05;;;;;;;17.10;8.43;;;15.60;99.90;;;;;;6004412;23;20158;-46
2022/03/18 08:31:30;;;;;;;18.23;9.13;;;15.60;99.90;;;;;;5980107;23;20098;-45
2022/03/18 08:34:53;;;;;;;18.90;8.52;;;15.40;99.90;;;;;;5980564;23;20034;-46
2022/03/18 08:38:19;;;;;;;14.75;8.82;;;14.70;99.90;;;;;;6005539;23;20062;-45
2022/03/18 08:41:45;;;;;;;18.65;8.68;;;14.30;99.90;;;;;;6003966;23;20046;-45
2022/03/18 08:45:12;;;;;;;19.40;9.70;;;13.80;99.90;;;;;;6028594;23;20023;-46
2022/03/18 08:48:38;;;;;;;19.33;8.63;;;13.20;99.90;;;;;;6004064;23;20011;-45
2022/03/18 08:52:05;;;;;;;19.45;8.48;;;12.60;99.90;;;;;;6003992;23;20051;-45
2022/03/18 08:55:32;;;;;;;18.83;8.35;;;12.50;99.90;;;;;;6002205;23;20027;-46
2022/03/18 08:58:55;;;;;;;14.73;7.53;;;12.40;99.90;;;;;;5981146;23;20347;-46
2022/03/18 09:02:21;;;;;;;16.17;8.05;;;12.00;99.90;;;;;;6029721;23;20103;-45
2022/03/18 09:05:49;;;;;;;17.40;7.95;;;11.80;99.90;;;;;;5982979;23;20340;-46
2022/03/18 09:09:14;;;;;;;21.63;7.78;;;11.80;99.90;;;;;;5979126;23;20022;-46
2022/03/18 09:12:40;;;;;;;15.32;7.50;;;11.80;99.90;;;;;;6028392;23;20026;-45
2022/03/18 09:16:04;;;;;;;18.38;7.38;;;11.90;99.90;;;;;;6028070;23;20142;-45
2022/03/18 11:19:52;;;;;;;14.60;5.28;;;16.20;99.90;;;;;;6027080;23;20026;-47
2022/03/18 11:23:16;;;;;;;14.50;5.65;;;16.40;99.90;;;;;;5978331;23;20397;-47
2022/03/18 11:54:10;;;;;;;13.95;5.63;;;16.70;99.90;;;;;;6030848;23;20335;-49
2022/03/18 12:25:15;;;;;;;16.85;5.03;;;15.90;99.90;;;;;;5979197;23;20121;-46
2022/03/18 12:28:32;;;;;;;16.20;4.85;;;15.80;99.90;;;;;;5954970;23;20311;-47
2022/03/18 12:31:55;;;;;;;16.58;5.45;;;15.70;99.90;;;;;;6003984;23;20376;-47
2022/03/18 12:35:22;;;;;;;20.42;4.85;;;15.50;99.90;;;;;;5979092;23;20023;-47
2022/03/18 12:38:47;;;;;;;14.18;3.83;;;15.40;99.90;;;;;;5978357;23;20102;-47
2022/03/18 12:42:14;;;;;;;15.63;4.15;;;15.30;99.90;;;;;;5976218;23;20023;-46
2022/03/18 12:45:42;;;;;;;14.52;4.25;;;15.40;99.90;;;;;;5976640;23;20055;-46
2022/03/18 12:49:06;;;;;;;15.98;4.82;;;15.50;99.90;;;;;;5973403;23;20030;-46
2022/03/18 12:52:33;;;;;;;15.68;4.38;;;15.70;99.90;;;;;;5997332;23;20429;-46
2022/03/18 12:55:58;;;;;;;14.68;4.20;;;15.60;99.90;;;;;;5971963;23;20735;-46
2022/03/18 12:59:23;;;;;;;15.25;4.28;;;15.70;99.90;;;;;;5995804;23;20031;-47
2022/03/18 13:13:20;;;;;;;15.48;4.40;;;15.50;99.90;;;;;;5973829;23;20027;-46
2022/03/18 13:16:37;;;;;;;13.82;4.63;;;15.50;99.90;;;;;;5968856;23;20027;-46
2022/03/18 13:20:02;;;;;;;16.40;4.45;;;15.50;99.90;;;;;;5997619;23;20471;-46
2022/03/18 13:23:28;;;;;;;18.92;5.10;;;15.40;99.90;;;;;;5972987;23;20122;-46
2022/03/18 13:26:54;;;;;;;15.20;5.07;;;15.40;99.90;;;;;;5975688;23;20019;-47
2022/03/18 13:33:48;;;;;;;17.83;4.72;;;15.30;99.90;;;;;;5973502;23;20020;-47
2022/03/18 13:37:12;;;;;;;19.35;5.13;;;15.30;99.90;;;;;;6001855;23;20012;-46
2022/03/18 13:40:38;;;;;;;16.25;5.20;;;15.30;99.90;;;;;;5970136;23;20027;-46
2022/03/18 13:44:04;;;;;;;16.52;4.90;;;15.10;99.90;;;;;;5971823;23;20095;-46
2022/03/18 13:47:30;;;;;;;16.58;4.70;;;15.00;99.90;;;;;;6002904;23;20066;-46
2022/03/18 13:54:26;;;;;;;16.77;4.82;;;15.10;99.90;;;;;;5971265;23;20059;-46
2022/03/18 13:57:50;;;;;;;16.48;5.40;;;15.10;99.90;;;;;;5951598;23;20293;-50
2022/03/18 14:01:13;;;;;;;18.63;4.88;;;15.00;99.90;;;;;;5952194;23;20019;-50
2022/03/18 14:04:39;;;;;;;17.40;4.93;;;15.00;99.90;;;;;;5975669;23;20020;-46
2022/03/18 14:08:07;;;;;;;17.33;4.70;;;14.80;99.90;;;;;;5972372;23;20150;-49
2022/03/18 14:14:59;;;;;;;17.88;4.85;;;14.60;99.90;;;;;;5999061;23;20592;-45
2022/03/18 14:18:25;;;;;;;16.00;4.25;;;14.50;99.90;;;;;;6002503;23;20048;-46
2022/03/18 14:21:51;;;;;;;19.55;5.25;;;14.40;99.90;;;;;;6000376;23;20027;-45
2022/03/18 14:25:17;;;;;;;14.75;4.63;;;14.30;99.90;;;;;;5979889;23;20023;-46
2022/03/18 14:28:43;;;;;;;14.18;4.97;;;14.30;99.90;;;;;;6006426;23;20098;-46
2022/03/18 14:32:06;;;;;;;15.98;4.10;;;14.30;99.90;;;;;;6006124;23;20407;-45
2022/03/18 14:39:12;;;;;;;18.58;4.68;;;14.10;99.90;;;;;;6026804;23;20034;-44
2022/03/18 14:42:30;;;;;;;17.35;4.65;;;13.90;99.90;;;;;;6003289;23;20022;-44
2022/03/18 14:45:53;;;;;;;20.13;4.10;;;13.80;99.90;;;;;;6030861;23;20343;-44
2022/03/18 14:49:20;;;;;;;13.25;3.70;;;13.70;99.90;;;;;;6032568;23;20182;-45
2022/03/18 14:52:45;;;;;;;11.93;3.35;;;13.50;99.90;;;;;;6003791;23;20066;-44
2022/03/18 14:56:26;;;;;;;16.20;3.38;;;13.40;99.90;;;;;;6005353;23;20074;-46
2022/03/18 14:59:42;;;;;;;15.10;3.70;;;13.30;99.90;;;;;;6023721;23;20050;-45
2022/03/18 15:03:02;;;;;;;18.15;3.75;;;13.30;99.90;;;;;;5983954;23;20122;-44
2022/03/18 15:09:54;;;;;;;14.43;3.78;;;13.20;99.90;;;;;;6007946;23;19922;-44
2022/03/18 15:13:20;;;;;;;11.77;3.60;;;13.10;99.90;;;;;;6006684;23;20453;-44
2022/03/18 15:16:47;;;;;;;12.52;3.60;;;13.10;99.90;;;;;;5983588;23;20040;-44
2022/03/18 15:23:47;;;;;;;12.57;2.78;;;12.70;99.90;;;;;;6028878;23;20205;-44
2022/03/18 15:27:05;;;;;;;13.77;3.13;;;12.60;99.90;;;;;;5983324;23;20024;-44
2022/03/18 15:30:22;;;;;;;12.98;3.35;;;12.50;99.90;;;;;;6008650;23;20037;-44
2022/03/18 15:33:40;;;;;;;17.33;3.17;;;12.40;99.90;;;;;;6033811;23;20055;-44
2022/03/18 15:37:03;;;;;;;18.38;3.72;;;12.30;99.90;;;;;;5983579;23;20458;-44
2022/03/18 15:40:28;;;;;;;12.80;2.70;;;12.20;99.90;;;;;;6034225;23;20023;-43
2022/03/18 15:43:56;;;;;;;17.05;4.05;;;12.10;99.90;;;;;;6033277;23;20101;-47
2022/03/18 15:47:19;;;;;;;13.73;3.40;;;12.00;99.90;;;;;;6008200;23;20044;-44
2022/03/18 15:50:45;;;;;;;20.13;4.13;;;12.00;99.90;;;;;;6006986;23;20141;-44
2022/03/18 15:54:13;;;;;;;20.90;4.32;;;11.90;99.90;;;;;;6006090;23;20043;-43
2022/03/18 15:57:39;;;;;;;14.52;3.33;;;11.80;99.90;;;;;;6031413;23;20030;-45
2022/03/18 16:01:04;;;;;;;15.65;3.65;;;11.70;99.90;;;;;;6032107;23;20020;-44
2022/03/18 16:04:30;;;;;;;17.77;4.28;;;11.60;99.90;;;;;;6005819;23;20284;-46
2022/03/18 16:07:56;;;;;;;19.27;4.15;;;11.50;99.90;;;;;;6028798;23;20026;-44
2022/03/18 16:11:25;;;;;;;18.67;3.45;;;11.40;99.90;;;;;;6031623;23;20074;-45
2022/03/18 16:14:49;;;;;;;21.85;4.28;;;11.30;99.90;;;;;;5980795;23;20023;-45
2022/03/18 16:18:18;;;;;;;18.13;3.50;;;11.20;99.90;;;;;;6005215;23;20023;-44
2022/03/18 16:21:41;;;;;;;19.50;3.50;;;11.20;99.90;;;;;;5971525;23;20563;-46
2022/03/18 16:25:07;;;;;;;20.60;3.42;;;11.10;99.90;;;;;;6004919;23;20356;-46
2022/03/18 16:28:32;;;;;;;16.60;3.47;;;11.00;99.90;;;;;;6032389;23;20027;-46
2022/03/18 16:35:30;;;;;;;20.77;3.95;;;10.80;99.90;;;;;;6027642;23;20311;-45
2022/03/18 16:38:50;;;;;;;22.27;4.22;;;10.80;99.90;;;;;;6002368;23;20042;-48
2022/03/18 16:42:14;;;;;;;19.02;4.30;;;10.70;99.90;;;;;;6006519;23;20386;-45
2022/03/18 16:49:24;;;;;;;21.60;4.03;;;10.50;99.90;;;;;;5996097;23;20020;-45
2022/03/18 16:52:43;;;;;;;23.50;4.80;;;10.40;99.90;;;;;;5979728;23;20124;-47
2022/03/18 16:56:01;;;;;;;15.38;4.03;;;10.30;99.90;;;;;;5982311;23;20023;-45
2022/03/18 16:59:26;;;;;;;24.95;4.35;;;10.20;99.90;;;;;;5982801;23;20023;-45
2022/03/18 17:02:51;;;;;;;27.25;4.88;;;10.00;99.90;;;;;;5981726;23;20023;-45
2022/03/18 17:06:18;;;;;;;21.52;4.68;;;9.90;99.90;;;;;;6002328;23;20111;-44
2022/03/18 17:13:19;;;;;;;18.40;4.93;;;9.70;99.90;;;;;;6033398;23;20061;-45
2022/03/18 17:16:36;;;;;;;22.40;5.13;;;9.40;99.90;;;;;;5976349;23;20016;-45
2022/03/18 17:19:54;;;;;;;20.92;4.20;;;9.50;99.90;;;;;;6029565;23;20088;-48
2022/03/18 17:23:16;;;;;;;16.27;4.35;;;9.30;99.90;;;;;;6000040;23;20416;-45
2022/03/18 17:26:40;;;;;;;18.77;4.32;;;9.20;99.90;;;;;;5977641;23;20031;-46
2022/03/18 17:30:06;;;;;;;16.80;4.53;;;9.00;99.90;;;;;;6000080;23;20024;-47
2022/03/18 17:33:29;;;;;;;17.25;3.90;;;8.80;99.90;;;;;;5977623;23;20026;-45
2022/03/18 17:36:58;;;;;;;22.33;4.28;;;8.60;99.90;;;;;;6006470;23;20019;-44
2022/03/18 17:40:21;;;;;;;18.30;3.92;;;8.50;99.90;;;;;;6004422;23;20617;-45
2022/03/18 17:43:47;;;;;;;19.27;4.28;;;8.30;99.90;;;;;;5978891;23;20090;-44
2022/03/18 17:47:14;;;;;;;24.88;4.32;;;8.20;99.90;;;;;;5978933;23;20055;-44
2022/03/18 17:50:39;;;;;;;21.75;4.50;;;8.10;99.90;;;;;;6004889;23;20016;-44
2022/03/18 17:54:09;;;;;;;20.38;5.07;;;7.90;99.90;;;;;;6002112;23;20091;-44
2022/03/18 17:57:29;;;;;;;17.13;3.90;;;7.80;99.90;;;;;;6003717;23;20443;-45
2022/03/18 18:00:56;;;;;;;21.92;4.65;;;7.60;99.90;;;;;;6002752;23;20273;-44
2022/03/18 18:04:19;;;;;;;19.75;4.60;;;7.50;99.90;;;;;;6002120;23;20026;-45
2022/03/18 18:07:46;;;;;;;24.33;4.38;;;7.40;99.90;;;;;;6000832;23;20019;-44
2022/03/18 18:11:11;;;;;;;15.50;3.75;;;7.30;99.90;;;;;;6002994;23;20020;-44
2022/03/18 18:14:39;;;;;;;23.92;4.63;;;7.20;99.90;;;;;;6004209;23;20327;-44
2022/03/18 18:18:05;;;;;;;24.83;4.28;;;7.10;99.90;;;;;;6002103;23;20079;-44
2022/03/18 18:24:59;;;;;;;27.02;4.00;;;7.00;99.90;;;;;;6001637;23;20494;-43
2022/03/18 18:28:23;;;;;;;20.98;4.78;;;7.00;99.90;;;;;;5978015;23;20027;-44
2022/03/18 18:31:50;;;;;;;20.00;4.00;;;7.00;99.90;;;;;;6002498;23;20455;-44
2022/03/18 18:35:13;;;;;;;24.75;4.82;;;7.00;99.90;;;;;;6000411;23;20091;-43
2022/03/18 18:38:43;;;;;;;22.27;5.18;;;7.00;99.90;;;;;;6005705;23;20020;-43
2022/03/18 18:42:12;;;;;;;18.85;4.22;;;7.10;99.90;;;;;;6002973;23;20015;-43
2022/03/18 18:45:35;;;;;;;25.00;5.22;;;7.10;99.90;;;;;;6001006;23;20122;-43
2022/03/18 18:48:59;;;;;;;30.27;5.95;;;7.10;99.90;;;;;;5978021;23;20020;-43
2022/03/18 18:52:25;;;;;;;22.33;4.95;;;7.20;99.90;;;;;;6001282;23;20020;-44
2022/03/18 18:58:49;;;;;;;26.70;4.50;;;7.20;99.90;;;;;;6000741;23;20014;-44
2022/03/18 19:01:59;;;;;;;29.02;5.35;;;7.20;99.90;;;;;;5998861;23;20095;-43
2022/03/18 19:43:11;;;;;;;27.55;4.82;;;6.30;99.90;;;;;;6003050;23;20026;-43
2022/03/18 20:10:40;;;;;;;24.08;4.05;;;5.80;99.90;;;;;;5975601;23;20035;-43
2022/03/18 20:24:23;;;;;;;23.50;5.18;;;5.60;99.90;;;;;;5977081;23;20082;-43
2022/03/18 20:27:49;;;;;;;21.13;5.28;;;5.50;99.90;;;;;;6002015;23;20040;-42
2022/03/18 20:31:15;;;;;;;19.52;5.72;;;5.50;99.90;;;;;;5975965;23;20091;-42
2022/03/18 20:34:42;;;;;;;22.73;6.57;;;5.40;99.90;;;;;;5976550;23;20090;-43
2022/03/18 20:38:08;;;;;;;20.02;4.22;;;5.40;99.90;;;;;;6001867;23;20019;-42
2022/03/18 20:41:31;;;;;;;18.25;3.92;;;5.30;99.90;;;;;;6003725;23;20351;-42
2022/03/18 20:44:57;;;;;;;19.75;4.00;;;5.30;99.90;;;;;;5999724;23;20019;-43
2022/03/18 20:48:21;;;;;;;21.40;4.00;;;5.20;99.90;;;;;;5975945;23;20042;-42
2022/03/18 20:51:48;;;;;;;19.05;3.97;;;5.10;99.90;;;;;;5955579;23;20031;-42
2022/03/18 20:55:14;;;;;;;20.65;4.03;;;5.10;99.90;;;;;;6002150;23;20654;-42
2022/03/18 20:58:40;;;;;;;17.13;5.60;;;5.00;99.90;;;;;;5955441;23;20022;-42
2022/03/18 21:02:07;;;;;;;20.15;3.88;;;5.00;99.90;;;;;;5977018;23;20016;-43
2022/03/18 21:05:33;;;;;;;18.95;3.88;;;5.00;99.90;;;;;;6001375;23;20023;-42
2022/03/18 21:08:59;;;;;;;14.15;3.53;;;4.90;99.90;;;;;;6003928;23;20030;-42
2022/03/18 21:12:24;;;;;;;19.80;3.92;;;4.90;99.90;;;;;;6004789;23;20023;-43
2022/03/18 21:15:50;;;;;;;19.35;4.35;;;4.90;99.90;;;;;;5979979;23;20443;-42
2022/03/18 21:18:17;;;;;;;17.48;4.13;;;4.80;99.90;;;;;;6006562;23;20012;-42
2022/03/18 21:21:00;;;;;;;19.48;3.53;;;4.80;99.90;;;;;;5981386;23;20031;-43
2022/03/18 21:38:09;;;;;;;18.50;3.85;;;4.70;99.90;;;;;;6032084;23;20025;-42
2022/03/18 22:33:05;;;;;;;14.32;3.10;;;4.10;99.90;;;;;;6005943;23;20106;-42
2022/03/18 23:14:17;;;;;;;14.52;3.03;;;3.60;99.90;;;;;;6004690;23;20023;-41
2022/03/18 23:48:36;;;;;;;13.35;2.40;;;3.20;99.90;;;;;;6032066;23;20064;-41
2022/03/18 23:55:30;;;;;;;10.00;2.08;;;3.20;99.90;;;;;;6029535;23;20022;-41
